createdAt,value
2018-06-29T00:00:16.055Z,17.90
2018-06-29T00:02:52.958Z,18.00
2018-06-29T00:05:29.253Z,17.90
2018-06-29T00:08:02.552Z,17.90
2018-06-29T00:10:36.970Z,18.00
2018-06-29T00:15:39.871Z,18.00
2018-06-29T00:20:45.810Z,17.90
2018-06-29T00:25:54.141Z,17.90
2018-06-29T00:28:26.495Z,18.00
2018-06-29T00:30:59.569Z,18.00
2018-06-29T00:33:39.232Z,18.00
2018-06-29T00:36:13.937Z,18.00
2018-06-29T00:38:50.668Z,18.00
2018-06-29T00:42:10.016Z,18.00
2018-06-29T00:44:43.494Z,18.10
2018-06-29T00:47:19.483Z,18.10
2018-06-29T00:49:53.387Z,18.10
2018-06-29T00:55:06.290Z,18.10
2018-06-29T00:57:44.819Z,18.10
2018-06-29T01:00:17.311Z,18.10
2018-06-29T01:02:48.848Z,18.20
2018-06-29T01:05:25.128Z,18.20
2018-06-29T01:08:00.496Z,18.20
2018-06-29T01:10:29.922Z,18.20
2018-06-29T01:12:58.994Z,18.20
2018-06-29T01:15:28.785Z,18.20
2018-06-29T01:25:21.140Z,18.30
2018-06-29T01:27:50.016Z,18.20
2018-06-29T01:35:50.565Z,18.20
2018-06-29T01:38:25.737Z,18.20
2018-06-29T01:41:09.280Z,18.20
2018-06-29T01:43:43.173Z,18.20
2018-06-29T01:46:17.736Z,18.20
2018-06-29T01:48:50.388Z,18.20
2018-06-29T01:51:50.211Z,18.20
2018-06-29T01:54:18.752Z,18.30
2018-06-29T01:56:48.468Z,18.30
2018-06-29T01:59:17.840Z,18.30
2018-06-29T02:04:27.080Z,18.20
2018-06-29T02:06:59.669Z,18.20
2018-06-29T02:09:35.571Z,18.30
2018-06-29T02:12:10.366Z,18.40
2018-06-29T02:14:42.802Z,18.40
2018-06-29T02:17:16.054Z,18.40
2018-06-29T02:22:25.894Z,18.40
2018-06-29T02:25:01.978Z,18.40
2018-06-29T02:27:43.654Z,18.40
2018-06-29T02:30:17.441Z,18.30
2018-06-29T02:32:49.968Z,18.30
2018-06-29T02:36:13.799Z,18.30
2018-06-29T02:38:54.381Z,18.40
2018-06-29T02:41:32.785Z,18.50
2018-06-29T02:44:07.665Z,18.50
2018-06-29T02:46:43.748Z,18.40
2018-06-29T02:49:18.348Z,18.50
2018-06-29T02:51:52.738Z,18.60
2018-06-29T02:54:25.268Z,18.50
2018-06-29T02:56:58.761Z,18.50
2018-06-29T02:59:38.320Z,18.50
2018-06-29T03:02:12.004Z,18.50
2018-06-29T03:04:44.511Z,18.50
2018-06-29T03:07:20.255Z,18.60
2018-06-29T03:12:37.687Z,18.60
2018-06-29T03:15:12.607Z,18.60
2018-06-29T03:17:49.589Z,18.50
2018-06-29T03:20:26.077Z,18.40
2018-06-29T03:23:03.001Z,18.30
2018-06-29T03:25:37.666Z,18.30
2018-06-29T03:28:11.600Z,18.30
2018-06-29T03:33:16.961Z,18.30
2018-06-29T03:35:54.041Z,18.20
2018-06-29T03:38:27.633Z,18.20
2018-06-29T03:41:05.060Z,18.20
2018-06-29T03:43:50.430Z,18.20
2018-06-29T03:46:25.271Z,18.20
2018-06-29T03:48:57.938Z,18.10
2018-06-29T03:51:37.493Z,18.10
2018-06-29T03:54:13.447Z,18.10
2018-06-29T03:59:25.379Z,18.20
2018-06-29T04:04:41.505Z,18.20
2018-06-29T04:07:18.644Z,18.30
2018-06-29T04:09:52.099Z,18.30
2018-06-29T04:12:25.490Z,18.30
2018-06-29T04:15:01.633Z,18.30
2018-06-29T04:17:38.145Z,18.30
2018-06-29T04:20:14.121Z,18.30
2018-06-29T04:22:52.485Z,18.50
2018-06-29T04:25:31.840Z,18.40
2018-06-29T04:28:05.364Z,18.50
2018-06-29T04:30:38.077Z,18.50
2018-06-29T04:33:16.105Z,18.50
2018-06-29T04:36:00.998Z,18.50
2018-06-29T04:38:35.720Z,18.50
2018-06-29T04:41:10.661Z,18.50
2018-06-29T04:46:20.347Z,18.60
2018-06-29T04:54:00.086Z,18.60
2018-06-29T04:56:37.645Z,18.70
2018-06-29T05:02:01.717Z,18.80
2018-06-29T05:04:42.385Z,18.80
2018-06-29T05:07:13.741Z,18.70
2018-06-29T05:09:46.460Z,18.80
2018-06-29T05:12:25.772Z,18.80
2018-06-29T05:15:00.275Z,18.80
2018-06-29T05:20:15.873Z,18.90
2018-06-29T05:25:20.743Z,19.00
2018-06-29T05:27:55.192Z,19.00
2018-06-29T05:30:27.754Z,19.10
2018-06-29T05:32:59.419Z,19.10
2018-06-29T05:37:11.180Z,19.10
2018-06-29T05:39:55.560Z,19.10
2018-06-29T05:45:08.987Z,19.00
2018-06-29T05:47:42.209Z,19.00
2018-06-29T05:50:15.999Z,19.00
2018-06-29T05:52:50.838Z,19.00
2018-06-29T05:55:30.557Z,18.90
2018-06-29T05:58:08.781Z,19.10
2018-06-29T06:00:42.526Z,19.10
2018-06-29T06:03:18.644Z,19.10
2018-06-29T06:05:58.260Z,19.10
2018-06-29T06:08:31.363Z,19.20
2018-06-29T06:11:03.112Z,19.30
2018-06-29T06:13:37.800Z,19.30
2018-06-29T06:16:19.548Z,19.40
2018-06-29T06:18:55.732Z,19.50
2018-06-29T06:21:39.719Z,19.60
2018-06-29T06:24:13.160Z,19.60
2018-06-29T06:26:56.285Z,19.80
2018-06-29T06:29:28.733Z,19.80
2018-06-29T06:32:01.349Z,19.80
2018-06-29T06:34:44.525Z,19.80
2018-06-29T06:37:20.399Z,19.80
2018-06-29T06:39:59.682Z,19.90
2018-06-29T06:45:10.724Z,19.70
2018-06-29T06:50:15.580Z,19.80
2018-06-29T06:52:49.070Z,19.80
2018-06-29T06:55:25.155Z,19.90
2018-06-29T06:58:00.919Z,20.00
2018-06-29T07:00:35.361Z,20.10
2018-06-29T07:03:14.209Z,20.30
2018-06-29T07:05:54.555Z,20.50
2018-06-29T07:08:29.232Z,20.70
2018-06-29T07:11:02.932Z,20.90
2018-06-29T07:13:45.160Z,21.00
2018-06-29T07:18:52.033Z,21.60
2018-06-29T07:21:29.369Z,21.80
2018-06-29T07:24:07.909Z,22.10
2018-06-29T07:26:40.488Z,22.50
2018-06-29T07:29:13.857Z,23.10
2018-06-29T07:31:48.920Z,23.50
2018-06-29T07:34:26.237Z,23.70
2018-06-29T07:37:03.318Z,23.40
2018-06-29T07:42:11.312Z,23.20
2018-06-29T07:44:45.839Z,23.30
2018-06-29T07:47:19.125Z,23.50
2018-06-29T07:49:54.267Z,23.40
2018-06-29T07:52:31.305Z,23.60
2018-06-29T07:55:07.081Z,23.60
2018-06-29T07:59:49.165Z,23.40
2018-06-29T08:04:56.571Z,23.50
2018-06-29T08:07:29.153Z,23.60
2018-06-29T08:10:09.959Z,23.70
2018-06-29T08:12:45.016Z,23.80
2018-06-29T08:15:20.981Z,23.70
2018-06-29T08:17:55.214Z,23.70
2018-06-29T08:23:00.296Z,23.30
2018-06-29T08:25:44.585Z,23.30
2018-06-29T08:28:23.139Z,23.50
2018-06-29T08:33:34.966Z,24.20
2018-06-29T08:36:07.269Z,24.50
2018-06-29T08:38:41.194Z,24.70
2018-06-29T08:41:16.995Z,25.10
2018-06-29T08:43:50.909Z,25.40
2018-06-29T08:46:25.478Z,25.70
2018-06-29T08:49:01.749Z,25.50
2018-06-29T08:54:18.572Z,25.70
2018-06-29T08:56:47.443Z,26.10
2018-06-29T08:59:15.540Z,26.40
2018-06-29T09:01:43.728Z,26.50
2018-06-29T09:04:16.097Z,26.20
2018-06-29T09:06:44.399Z,26.30
2018-06-29T09:09:17.285Z,26.20
2018-06-29T09:11:49.622Z,26.40
2018-06-29T09:14:23.099Z,26.50
2018-06-29T09:16:57.375Z,26.70
2018-06-29T09:19:29.826Z,26.50
2018-06-29T09:22:02.323Z,26.10
2018-06-29T09:24:39.533Z,26.00
2018-06-29T09:27:12.185Z,26.10
2018-06-29T09:31:27.760Z,26.30
2018-06-29T09:34:04.391Z,26.60
2018-06-29T09:36:37.752Z,26.50
2018-06-29T09:39:12.858Z,26.60
2018-06-29T09:41:48.845Z,26.70
2018-06-29T09:44:29.228Z,27.00
2018-06-29T09:47:03.637Z,27.10
2018-06-29T09:49:38.705Z,26.80
2018-06-29T09:52:14.727Z,27.00
2018-06-29T09:54:49.551Z,27.00
2018-06-29T09:57:21.896Z,27.20
2018-06-29T10:02:39.274Z,27.20
2018-06-29T10:05:21.477Z,26.90
2018-06-29T10:08:00.118Z,27.00
2018-06-29T10:10:37.039Z,27.00
2018-06-29T10:13:15.396Z,27.00
2018-06-29T10:15:58.370Z,27.20
2018-06-29T10:18:33.929Z,27.20
2018-06-29T10:21:07.811Z,26.90
2018-06-29T10:23:44.176Z,27.20
2018-06-29T10:26:21.581Z,27.80
2018-06-29T10:28:59.999Z,28.20
2018-06-29T10:34:13.527Z,28.30
2018-06-29T10:36:46.697Z,28.40
2018-06-29T10:39:23.796Z,28.00
2018-06-29T10:41:57.556Z,28.00
2018-06-29T10:44:33.194Z,27.80
2018-06-29T10:47:05.668Z,27.90
2018-06-29T10:54:46.694Z,28.10
2018-06-29T10:57:20.047Z,28.00
2018-06-29T10:59:53.754Z,28.00
2018-06-29T11:02:28.190Z,27.90
2018-06-29T11:05:01.010Z,27.90
2018-06-29T11:07:36.721Z,28.10
2018-06-29T11:12:59.693Z,28.20
2018-06-29T11:15:32.224Z,28.10
2018-06-29T11:18:09.204Z,28.40
2018-06-29T11:20:47.352Z,28.30
2018-06-29T11:23:22.226Z,28.40
2018-06-29T11:25:55.699Z,28.20
2018-06-29T11:28:28.430Z,28.00
2018-06-29T11:31:03.315Z,28.50
2018-06-29T11:33:35.521Z,28.90
2018-06-29T11:36:10.336Z,28.60
2018-06-29T11:38:43.833Z,28.40
2018-06-29T11:41:16.368Z,28.10
2018-06-29T11:43:53.598Z,28.10
2018-06-29T11:46:30.374Z,27.50
2018-06-29T11:49:06.202Z,27.30
2018-06-29T11:51:41.182Z,26.90
2018-06-29T11:56:59.735Z,26.10
2018-06-29T11:59:39.306Z,25.90
2018-06-29T12:02:15.407Z,25.90
2018-06-29T12:09:57.269Z,25.90
2018-06-29T12:12:41.584Z,25.90
2018-06-29T12:15:18.931Z,25.90
2018-06-29T12:17:57.161Z,25.90
2018-06-29T12:20:30.743Z,25.90
2018-06-29T12:23:10.403Z,26.10
2018-06-29T12:25:56.954Z,26.20
2018-06-29T12:28:29.698Z,26.80
2018-06-29T12:31:05.286Z,27.10
2018-06-29T12:33:40.463Z,27.10
2018-06-29T12:36:10.880Z,27.30
2018-06-29T12:38:46.893Z,27.60
2018-06-29T12:41:23.952Z,27.80
2018-06-29T12:43:59.940Z,27.70
2018-06-29T12:46:34.835Z,27.80
2018-06-29T12:49:03.046Z,28.10
2018-06-29T12:51:33.152Z,28.00
2018-06-29T12:54:05.406Z,28.00
2018-06-29T12:56:42.241Z,27.50
2018-06-29T13:01:51.337Z,27.00
2018-06-29T13:04:30.802Z,27.20
2018-06-29T13:12:33.097Z,27.20
2018-06-29T13:15:08.077Z,27.10
2018-06-29T13:23:33.721Z,27.00
2018-06-29T13:26:06.248Z,26.50
2018-06-29T13:28:38.537Z,26.50
2018-06-29T13:33:49.672Z,26.80
2018-06-29T13:38:51.973Z,26.60
2018-06-29T13:41:24.601Z,26.60
2018-06-29T13:43:53.604Z,26.50
2018-06-29T13:46:21.725Z,26.60
2018-06-29T13:48:51.030Z,26.70
2018-06-29T13:51:24.216Z,26.80
2018-06-29T13:53:52.444Z,26.80
2018-06-29T13:56:21.185Z,27.00
2018-06-29T13:58:49.780Z,27.10
2018-06-29T14:01:19.190Z,26.80
2018-06-29T14:03:52.158Z,26.90
2018-06-29T14:06:20.351Z,26.90
2018-06-29T14:11:23.015Z,26.90
2018-06-29T14:13:51.230Z,26.80
2018-06-29T14:16:20.855Z,26.90
2018-06-29T14:21:28.265Z,26.90
2018-06-29T14:24:03.245Z,26.70
2018-06-29T14:26:32.792Z,26.60
2018-06-29T14:29:01.762Z,26.70
2018-06-29T14:31:38.749Z,26.60
2018-06-29T14:34:18.280Z,26.50
2018-06-29T14:36:54.129Z,26.50
2018-06-29T14:39:30.043Z,26.50
2018-06-29T14:42:05.365Z,26.40
2018-06-29T14:44:33.506Z,26.60
2018-06-29T14:47:01.601Z,26.50
2018-06-29T14:49:30.420Z,26.40
2018-06-29T14:51:59.599Z,26.30
2018-06-29T14:54:27.800Z,26.10
2018-06-29T14:56:57.008Z,26.00
2018-06-29T14:59:29.593Z,25.90
2018-06-29T15:02:04.185Z,26.10
2018-06-29T15:04:36.978Z,26.20
2018-06-29T15:12:17.093Z,26.00
2018-06-29T15:14:58.898Z,25.90
2018-06-29T15:17:34.996Z,25.80
2018-06-29T15:20:11.166Z,25.90
2018-06-29T15:22:48.255Z,26.00
2018-06-29T15:25:24.101Z,26.20
2018-06-29T15:27:57.870Z,26.10
2018-06-29T15:30:29.621Z,26.10
2018-06-29T15:33:03.056Z,26.10
2018-06-29T15:35:39.028Z,25.70
2018-06-29T15:40:45.303Z,25.60
2018-06-29T15:43:20.317Z,25.70
2018-06-29T15:46:12.823Z,25.50
2018-06-29T15:48:49.078Z,25.40
2018-06-29T15:51:25.235Z,25.40
2018-06-29T15:53:59.448Z,25.40
2018-06-29T15:59:06.004Z,25.20
2018-06-29T16:01:41.998Z,25.30
2018-06-29T16:04:20.099Z,25.30
2018-06-29T16:06:59.431Z,25.20
2018-06-29T16:09:31.914Z,25.20
2018-06-29T16:12:00.823Z,25.20
2018-06-29T16:14:29.865Z,25.10
2018-06-29T16:16:58.148Z,25.00
2018-06-29T16:19:27.297Z,25.10
2018-06-29T16:21:55.504Z,25.10
2018-06-29T16:24:23.858Z,25.20
2018-06-29T16:26:52.085Z,25.20
2018-06-29T16:29:21.204Z,25.20
2018-06-29T16:31:49.656Z,25.10
2018-06-29T16:34:18.134Z,25.20
2018-06-29T16:39:28.553Z,25.20
2018-06-29T16:42:09.565Z,25.00
2018-06-29T16:44:50.415Z,25.00
2018-06-29T16:47:28.549Z,24.90
2018-06-29T16:50:04.543Z,24.90
